KCNO/CNO METAR and TAF weather

Enter ICAO airport designator
Station Type Date Time Source
KCNO METAR 2018/07/21 10:53 UTC NOAA

KCNO 211053Z AUTO 26005KT 10SM CLR 20/14 A2999 RMK AO2 SLP147 T02000144


Station Type Date Time Source
KCNO Decoded METAR 2018/07/21 10:53 UTC NOAA

CHINO AIRPORT, CA, United States (KCNO) 33-58N 117-38W 207M
Jul 21, 2018 - 06:53 AM EDT / 2018.07.21 1053 UTC
Wind: from the W (260 degrees) at 6 MPH (5 KT):0
Visibility: 10 mile(s):0
Sky conditions: clear
Temperature: 68.0 F (20.0 C)
Dew Point: 57.9 F (14.4 C)
Relative Humidity: 70%
Pressure (altimeter): 29.99 in. Hg (1015 hPa)
ob: KCNO 211053Z AUTO 26005KT 10SM CLR 20/14 A2999 RMK AO2 SLP147 T02000144
cycle: 11

Station Type Date Time Source
KCNO TAF UTC NOAA

Error!


Example: see airport list